KCBE/CBE METAR and TAF weather

Enter ICAO airport designator
Station Type Date Time Source
KCBE METAR 2018/12/10 17:20 UTC NOAA

KCBE 101720Z AUTO 00000KT 10SM CLR 00/M07 A3020 RMK AO2 T00011075


Station Type Date Time Source
KCBE Decoded METAR 2018/12/10 17:20 UTC NOAA

Cumberland, Greater Cumberland Regional Airport, MD, United States (KCBE) 39-36-55N 078-45-39W
Dec 10, 2018 - 12:20 PM EST / 2018.12.10 1720 UTC
Wind: Calm:0
Visibility: 10 mile(s):0
Sky conditions: clear
Temperature: 32.2 F (0.1 C)
Dew Point: 18.5 F (-7.5 C)
Relative Humidity: 56%
Pressure (altimeter): 30.2 in. Hg (1022 hPa)
ob: KCBE 101720Z AUTO 00000KT 10SM CLR 00/M07 A3020 RMK AO2 T00011075
cycle: 17

Station Type Date Time Source
KCBE TAF UTC NOAA

Error!


Example: see airport list